Time;durP1;ratioP1;P1;durP2;ratioP2;P2;SDS_P1;SDS_P2;PMS_P1;PMS_P2;Temp;Humidity;BMP_temperature;BMP_pressure;BME280_temperature;BME280_humidity;BME280_pressure;Samples;Min_cycle;Max_cycle;Signal;HPM_P1;HPM_P2
2022/01/10 00:00:09;;;;;;;;;117.40;105.80;18.40;99.90;;;;;;5056814;28;8816;-72
2022/01/10 00:02:36;;;;;;;;;103.60;90.00;18.30;99.90;;;;;;5056532;28;8824;-71
2022/01/10 00:05:03;;;;;;;;;101.80;86.80;18.40;99.90;;;;;;5055315;28;8758;-72
2022/01/10 00:07:29;;;;;;;;;105.60;86.80;18.50;99.90;;;;;;5045009;28;8759;-72
2022/01/10 00:09:56;;;;;;;;;96.00;83.80;18.60;99.90;;;;;;5057373;28;8916;-72
2022/01/10 00:12:23;;;;;;;;;85.20;75.00;18.70;99.90;;;;;;5055208;28;8754;-71
2022/01/10 00:14:49;;;;;;;;;81.80;72.20;18.60;99.90;;;;;;5056717;28;8762;-72
2022/01/10 00:17:16;;;;;;;;;88.60;75.20;18.60;99.90;;;;;;5056451;28;8769;-72
2022/01/10 00:19:43;;;;;;;;;83.40;72.80;18.60;99.90;;;;;;5056179;28;9427;-72
2022/01/10 00:22:11;;;;;;;;;90.60;77.60;18.40;99.90;;;;;;5057020;28;8722;-72
2022/01/10 00:24:38;;;;;;;;;102.40;83.80;18.50;99.90;;;;;;5056248;28;8788;-71
2022/01/10 00:27:05;;;;;;;;;117.60;101.60;18.60;99.90;;;;;;5056702;28;8864;-72
2022/01/10 00:29:32;;;;;;;;;142.20;120.40;18.70;99.90;;;;;;5055768;28;8758;-71
2022/01/10 00:31:59;;;;;;;;;122.40;107.20;18.70;99.90;;;;;;5056289;28;8761;-72
2022/01/10 00:34:26;;;;;;;;;104.40;86.20;18.70;99.90;;;;;;5055701;28;9425;-71
2022/01/10 00:36:53;;;;;;;;;95.20;85.00;18.80;99.90;;;;;;5057091;28;8765;-72
2022/01/10 00:39:20;;;;;;;;;84.40;72.00;18.70;99.90;;;;;;5055991;28;9394;-71
2022/01/10 00:41:47;;;;;;;;;83.40;73.20;18.70;99.90;;;;;;5056571;28;8963;-71
2022/01/10 00:44:14;;;;;;;;;85.20;78.20;18.80;99.90;;;;;;5056214;28;8730;-71
2022/01/10 00:46:41;;;;;;;;;106.00;94.00;18.90;99.90;;;;;;5055198;28;8722;-71
2022/01/10 00:49:07;;;;;;;;;87.00;77.40;18.90;99.90;;;;;;5056758;28;8789;-71
2022/01/10 00:51:34;;;;;;;;;91.40;81.40;18.90;99.90;;;;;;5071060;28;8744;-71
2022/01/10 00:54:01;;;;;;;;;101.20;87.00;19.00;99.90;;;;;;5054802;28;9441;-71
2022/01/10 00:56:28;;;;;;;;;87.00;81.60;19.00;99.90;;;;;;5062869;28;8907;-71
2022/01/10 00:58:54;;;;;;;;;89.60;82.20;19.20;99.90;;;;;;5056412;28;8757;-71
2022/01/10 01:01:21;;;;;;;;;78.60;66.80;19.20;99.90;;;;;;5055972;28;8750;-70
2022/01/10 01:03:48;;;;;;;;;80.80;70.00;19.30;99.90;;;;;;5055889;28;8758;-71
2022/01/10 01:06:15;;;;;;;;;80.40;68.40;19.40;99.90;;;;;;5055104;28;9310;-71
2022/01/10 01:08:43;;;;;;;;;81.40;72.20;19.40;99.90;;;;;;5055971;28;8748;-71
2022/01/10 01:16:30;;;;;;;;;72.00;54.80;19.80;99.90;;;;;;5055113;28;8850;-67
2022/01/10 01:24:27;;;;;;;;;69.40;55.00;19.90;99.90;;;;;;5057458;28;8785;-71
2022/01/10 01:26:54;;;;;;;;;72.40;56.00;20.10;99.90;;;;;;5059832;28;8764;-71
2022/01/10 01:29:25;;;;;;;;;74.00;58.40;20.20;99.90;;;;;;5059510;28;8758;-70
2022/01/10 01:31:52;;;;;;;;;73.80;59.00;20.30;99.90;;;;;;5058366;28;8757;-71
2022/01/10 01:34:22;;;;;;;;;74.60;59.80;20.30;99.90;;;;;;5059595;28;9382;-70
2022/01/10 01:36:52;;;;;;;;;71.60;60.80;20.40;99.90;;;;;;5074408;28;8757;-71
2022/01/10 01:39:24;;;;;;;;;70.20;55.40;20.50;99.90;;;;;;5059341;28;8745;-69
2022/01/10 01:42:04;;;;;;;;;74.20;61.20;20.60;99.90;;;;;;5058035;28;8835;-71
2022/01/10 01:44:31;;;;;;;;;73.20;58.20;20.50;99.90;;;;;;5058224;28;8800;-70
2022/01/10 01:46:57;;;;;;;;;73.40;60.20;20.70;99.90;;;;;;5059395;28;8754;-70
2022/01/10 01:49:24;;;;;;;;;73.40;58.60;20.70;99.90;;;;;;5059760;28;8737;-70
2022/01/10 01:51:51;;;;;;;;;70.60;58.60;20.60;99.90;;;;;;5067761;28;8742;-70
2022/01/10 01:54:18;;;;;;;;;70.20;57.40;20.50;99.90;;;;;;5057751;28;8758;-69
2022/01/10 01:56:45;;;;;;;;;70.60;57.80;20.50;99.90;;;;;;5059121;28;8777;-70
2022/01/10 01:59:12;;;;;;;;;75.80;65.00;20.80;99.90;;;;;;5058729;28;8766;-70
2022/01/10 02:01:39;;;;;;;;;72.80;58.80;20.80;99.90;;;;;;5058512;28;8775;-70
2022/01/10 02:04:05;;;;;;;;;72.60;56.00;20.80;99.90;;;;;;5058304;28;8726;-70
2022/01/10 02:06:32;;;;;;;;;75.60;63.20;20.90;99.90;;;;;;5057422;28;8765;-69
2022/01/10 02:08:59;;;;;;;;;69.20;55.20;20.90;99.90;;;;;;5058764;28;8722;-70
2022/01/10 02:11:26;;;;;;;;;68.80;53.40;21.10;99.90;;;;;;5058725;28;8745;-70
2022/01/10 02:13:52;;;;;;;;;68.00;53.80;21.40;99.90;;;;;;5058548;28;8758;-70
2022/01/10 02:16:31;;;;;;;;;64.80;50.80;21.50;99.90;;;;;;5059063;28;8746;-68
2022/01/10 02:18:58;;;;;;;;;64.00;51.20;21.60;99.90;;;;;;5058542;28;8745;-70
2022/01/10 02:21:24;;;;;;;;;67.75;52.00;21.70;99.90;;;;;;5058364;28;8845;-69
2022/01/10 02:23:51;;;;;;;;;64.75;50.50;21.70;99.90;;;;;;5055161;28;8773;-71
2022/01/10 02:26:18;;;;;;;;;61.25;47.50;21.80;99.90;;;;;;5067353;28;8753;-69
2022/01/10 02:28:45;;;;;;;;;66.75;51.50;21.90;99.90;;;;;;5058453;28;8805;-70
2022/01/10 02:31:11;;;;;;;;;67.50;52.50;21.90;99.90;;;;;;5074580;28;8835;-70
2022/01/10 02:33:38;;;;;;;;;55.50;44.25;22.10;99.90;;;;;;5056941;28;8772;-69
2022/01/10 02:36:18;;;;;;;;;60.50;47.25;21.90;99.90;;;;;;5057285;28;9914;-70
2022/01/10 02:38:49;;;;;;;;;62.75;49.25;22.00;99.90;;;;;;5058409;28;8815;-69
2022/01/10 02:41:31;;;;;;;;;67.25;51.75;22.10;99.90;;;;;;5058261;28;8758;-70
2022/01/10 02:43:59;;;;;;;;;60.00;46.50;22.10;99.90;;;;;;5057105;28;8753;-70
2022/01/10 02:46:25;;;;;;;;;60.25;46.75;22.20;99.90;;;;;;5058209;28;8749;-68
2022/01/10 02:48:52;;;;;;;;;62.00;49.50;22.40;99.90;;;;;;5040871;28;8737;-70
2022/01/10 02:51:19;;;;;;;;;60.25;46.00;22.50;99.90;;;;;;5057841;28;8737;-69
2022/01/10 02:53:46;;;;;;;;;62.00;48.00;22.60;99.90;;;;;;5058000;28;8764;-71
2022/01/10 02:56:12;;;;;;;;;58.75;45.75;22.60;99.90;;;;;;5058159;28;8769;-71
2022/01/10 02:58:39;;;;;;;;;58.50;48.25;22.70;99.90;;;;;;5057950;28;8995;-72
2022/01/10 03:01:08;;;;;;;;;57.00;45.75;22.80;99.90;;;;;;5057720;28;8896;-72
2022/01/10 03:03:35;;;;;;;;;58.75;45.00;22.90;99.90;;;;;;5056878;28;8812;-71
2022/01/10 03:06:02;;;;;;;;;58.75;47.25;22.90;99.90;;;;;;5056286;28;8749;-71
2022/01/10 03:08:30;;;;;;;;;55.75;44.25;22.70;99.90;;;;;;5039392;28;8773;-72
2022/01/10 03:10:57;;;;;;;;;51.50;40.50;22.80;99.90;;;;;;5057667;28;8756;-72
2022/01/10 03:13:24;;;;;;;;;57.00;46.00;23.10;99.90;;;;;;5058194;28;8769;-71
2022/01/10 03:15:50;;;;;;;;;45.75;39.00;23.30;99.90;;;;;;5057422;28;8859;-71
2022/01/10 03:18:17;;;;;;;;;59.25;43.75;23.40;99.90;;;;;;5056127;28;8749;-69
2022/01/10 03:20:44;;;;;;;;;52.50;42.00;23.50;99.90;;;;;;5056284;28;8828;-71
2022/01/10 03:23:10;;;;;;;;;47.75;40.25;23.70;99.90;;;;;;5057456;28;8778;-69
2022/01/10 03:25:37;;;;;;;;;52.50;44.50;23.70;99.90;;;;;;5057966;28;8778;-70
2022/01/10 03:28:06;;;;;;;;;53.25;43.50;23.80;99.90;;;;;;5063462;28;8766;-70
2022/01/10 03:30:34;;;;;;;;;53.50;40.25;23.80;99.90;;;;;;5057047;28;8769;-70
2022/01/10 03:33:03;;;;;;;;;55.00;44.50;23.90;99.90;;;;;;5057312;28;8758;-70
2022/01/10 03:35:30;;;;;;;;;50.25;41.50;24.10;99.90;;;;;;5057026;28;8754;-70
2022/01/10 03:37:57;;;;;;;;;59.75;45.75;24.20;99.90;;;;;;5057272;28;8769;-70
2022/01/10 03:40:23;;;;;;;;;56.25;44.00;24.30;99.90;;;;;;5057681;28;8726;-71
2022/01/10 03:42:50;;;;;;;;;56.25;44.50;24.40;99.90;;;;;;5056256;28;8742;-70
2022/01/10 03:45:17;;;;;;;;;53.75;41.75;24.40;99.90;;;;;;5057077;28;8839;-70
2022/01/10 03:47:43;;;;;;;;;52.25;40.25;24.40;99.90;;;;;;5057149;28;8769;-70
2022/01/10 03:50:10;;;;;;;;;56.25;45.25;24.30;99.90;;;;;;5056842;28;8804;-70
2022/01/10 03:52:37;;;;;;;;;57.50;44.25;24.40;99.90;;;;;;5055287;28;8947;-70
2022/01/10 03:55:04;;;;;;;;;51.50;42.00;24.60;99.90;;;;;;5056152;28;8756;-71
2022/01/10 03:57:31;;;;;;;;;53.75;42.75;24.80;99.90;;;;;;5071310;28;8796;-71
2022/01/10 03:59:57;;;;;;;;;52.50;42.25;24.70;99.90;;;;;;5056879;28;8850;-71
2022/01/10 04:02:26;;;;;;;;;53.00;43.75;24.70;99.90;;;;;;5056691;28;8769;-71
2022/01/10 04:04:53;;;;;;;;;54.75;43.50;24.80;99.90;;;;;;5053013;28;8892;-70
2022/01/10 04:07:19;;;;;;;;;51.00;41.50;25.00;99.70;;;;;;5054803;28;8737;-69
2022/01/10 04:09:47;;;;;;;;;51.25;39.75;25.00;99.80;;;;;;5056959;28;8742;-70
2022/01/10 04:12:14;;;;;;;;;54.00;42.75;25.00;99.60;;;;;;5056894;28;8864;-71
2022/01/10 04:14:41;;;;;;;;;52.25;42.00;25.10;99.80;;;;;;5055276;28;8754;-71
2022/01/10 04:17:07;;;;;;;;;47.75;40.00;25.10;99.10;;;;;;5056967;28;8821;-71
2022/01/10 04:19:34;;;;;;;;;51.50;42.50;25.20;98.70;;;;;;5056516;28;8789;-69
2022/01/10 04:22:01;;;;;;;;;47.75;40.50;25.20;98.60;;;;;;5057512;28;9499;-70
2022/01/10 04:24:27;;;;;;;;;44.50;37.25;25.10;98.40;;;;;;5071677;28;8823;-71
2022/01/10 04:26:54;;;;;;;;;51.75;39.50;25.20;98.80;;;;;;5056661;28;8753;-71
2022/01/10 04:29:21;;;;;;;;;48.50;39.50;25.30;98.20;;;;;;5056614;28;8784;-71
2022/01/10 04:31:47;;;;;;;;;54.25;42.75;25.20;98.80;;;;;;5056659;28;8745;-71
2022/01/10 04:34:15;;;;;;;;;49.50;40.25;25.20;98.90;;;;;;5056940;28;8800;-71
2022/01/10 04:36:43;;;;;;;;;48.50;40.50;25.40;98.60;;;;;;5056436;28;8733;-70
2022/01/10 04:39:10;;;;;;;;;46.50;38.50;25.50;98.30;;;;;;5056500;28;8770;-70
2022/01/10 04:41:38;;;;;;;;;50.00;39.50;25.70;98.20;;;;;;5055960;28;8754;-70
2022/01/10 04:44:06;;;;;;;;;50.25;41.25;25.90;98.50;;;;;;5056321;28;8861;-69
2022/01/10 04:46:33;;;;;;;;;50.00;40.50;26.00;97.20;;;;;;5056349;28;8754;-70
2022/01/10 04:49:00;;;;;;;;;52.00;40.25;25.80;97.00;;;;;;5056355;28;8722;-70
2022/01/10 04:51:29;;;;;;;;;49.50;40.25;25.70;97.90;;;;;;5056158;28;8738;-70
2022/01/10 04:53:55;;;;;;;;;50.75;40.75;26.00;97.40;;;;;;5056475;28;8757;-70
2022/01/10 04:56:22;;;;;;;;;50.50;39.75;26.20;96.90;;;;;;5056239;28;8807;-69
2022/01/10 04:58:49;;;;;;;;;47.25;37.75;26.30;96.30;;;;;;5057470;28;8770;-69
2022/01/10 05:01:17;;;;;;;;;46.00;36.50;26.00;96.80;;;;;;5076189;28;8737;-70
2022/01/10 05:03:43;;;;;;;;;50.25;39.00;26.10;97.10;;;;;;5059728;28;8734;-70
2022/01/10 05:06:10;;;;;;;;;45.25;38.50;26.20;96.90;;;;;;5060063;28;8725;-70
2022/01/10 05:08:37;;;;;;;;;46.50;38.50;26.50;96.80;;;;;;5060147;28;8800;-69
2022/01/10 05:11:04;;;;;;;;;48.25;38.75;26.60;96.30;;;;;;5060391;28;8792;-70
2022/01/10 05:13:30;;;;;;;;;47.75;37.00;26.70;95.60;;;;;;5059719;28;8770;-69
2022/01/10 05:15:57;;;;;;;;;47.25;39.25;27.00;95.50;;;;;;5060658;28;8875;-70
2022/01/10 05:18:24;;;;;;;;;41.00;36.00;27.00;95.40;;;;;;5059863;28;9505;-70
2022/01/10 05:20:51;;;;;;;;;42.50;36.25;27.00;95.10;;;;;;5058712;28;8762;-69
2022/01/10 05:23:18;;;;;;;;;47.50;39.00;27.20;95.70;;;;;;5075718;28;8856;-69
2022/01/10 05:25:46;;;;;;;;;45.25;37.75;27.40;94.80;;;;;;5075099;28;8944;-69
2022/01/10 05:28:13;;;;;;;;;42.50;34.00;27.40;95.10;;;;;;5059122;28;8738;-69
2022/01/10 05:30:40;;;;;;;;;43.50;36.25;27.50;93.90;;;;;;5059824;28;8804;-69
2022/01/10 05:33:07;;;;;;;;;45.50;35.75;27.60;93.70;;;;;;5059904;28;8878;-69
2022/01/10 05:35:39;;;;;;;;;40.00;35.25;27.70;93.10;;;;;;5059275;28;8939;-69
2022/01/10 05:38:06;;;;;;;;;44.50;37.25;27.70;93.00;;;;;;5059805;28;9490;-70
2022/01/10 05:40:33;;;;;;;;;46.00;35.25;27.70;93.30;;;;;;5049246;28;8757;-69
2022/01/10 05:43:00;;;;;;;;;41.75;32.50;27.90;93.40;;;;;;5058920;28;8748;-69
2022/01/10 05:45:26;;;;;;;;;42.50;34.00;28.00;92.50;;;;;;5041105;28;8871;-69
2022/01/10 05:47:53;;;;;;;;;40.75;34.75;28.00;92.60;;;;;;5059426;28;8777;-70
2022/01/10 05:50:32;;;;;;;;;42.75;35.75;27.90;92.60;;;;;;5059117;28;8765;-69
2022/01/10 05:52:59;;;;;;;;;40.50;33.75;28.00;92.60;;;;;;5058284;28;8787;-69
2022/01/10 05:55:29;;;;;;;;;40.25;34.00;28.20;92.20;;;;;;5057747;28;8783;-70
2022/01/10 05:57:55;;;;;;;;;38.75;32.75;28.20;91.70;;;;;;5059558;28;8734;-70
2022/01/10 06:00:22;;;;;;;;;42.50;35.75;28.20;91.80;;;;;;5057908;28;8907;-69
2022/01/10 06:02:50;;;;;;;;;40.25;33.00;28.50;91.70;;;;;;5058928;28;8762;-68
2022/01/10 06:05:16;;;;;;;;;36.25;33.25;28.60;91.20;;;;;;5057703;28;8754;-69
2022/01/10 06:07:44;;;;;;;;;37.00;32.25;28.60;91.80;;;;;;5058976;28;8726;-69
2022/01/10 06:10:10;;;;;;;;;40.00;33.75;28.70;91.70;;;;;;5058365;28;8718;-70
2022/01/10 06:12:37;;;;;;;;;40.00;33.00;28.70;90.80;;;;;;5058786;28;8783;-69
2022/01/10 06:15:04;;;;;;;;;39.50;34.75;28.70;91.20;;;;;;5059129;28;8919;-70
2022/01/10 06:17:31;;;;;;;;;41.00;33.75;28.80;90.40;;;;;;5059783;28;8823;-70
2022/01/10 06:19:59;;;;;;;;;36.25;32.25;28.60;91.50;;;;;;5059008;28;8754;-70
2022/01/10 06:22:26;;;;;;;;;34.50;31.50;28.60;91.90;;;;;;5058626;28;8725;-70
2022/01/10 06:24:52;;;;;;;;;33.25;30.00;28.80;90.00;;;;;;5059284;28;8808;-70
2022/01/10 06:27:19;;;;;;;;;35.25;30.25;28.90;89.20;;;;;;5056972;28;8722;-68
2022/01/10 06:29:46;;;;;;;;;34.75;31.00;29.10;88.90;;;;;;5058667;28;8823;-71
2022/01/10 06:32:12;;;;;;;;;32.25;30.75;29.20;88.50;;;;;;5058721;28;8763;-70
2022/01/10 06:34:39;;;;;;;;;26.75;21.25;29.30;86.50;;;;;;5058486;28;8738;-71
2022/01/10 06:37:06;;;;;;;;;24.25;23.75;29.00;87.50;;;;;;5059138;28;8753;-71
2022/01/10 06:39:33;;;;;;;;;28.75;27.50;29.00;87.20;;;;;;5058252;28;8726;-71
2022/01/10 06:42:00;;;;;;;;;28.50;25.75;29.10;86.20;;;;;;5058503;28;8730;-70
2022/01/10 06:44:26;;;;;;;;;30.75;28.25;29.10;86.40;;;;;;5058071;28;8714;-71
2022/01/10 06:46:53;;;;;;;;;30.00;24.00;29.30;84.60;;;;;;5059206;28;8762;-71
2022/01/10 06:49:20;;;;;;;;;28.00;26.25;29.30;85.00;;;;;;5057329;28;8749;-70
2022/01/10 06:51:47;;;;;;;;;26.75;24.75;29.30;85.70;;;;;;5058061;28;8742;-71
2022/01/10 06:54:13;;;;;;;;;28.25;24.75;29.40;85.50;;;;;;5073067;28;8788;-72
2022/01/10 06:56:40;;;;;;;;;29.50;28.00;29.60;84.80;;;;;;5057769;28;8753;-71
2022/01/10 06:59:07;;;;;;;;;34.75;30.25;29.70;84.70;;;;;;5073334;28;8781;-71
2022/01/10 07:01:34;;;;;;;;;29.00;24.00;29.70;84.80;;;;;;5058003;28;8762;-71
2022/01/10 07:04:01;;;;;;;;;27.75;26.50;29.40;86.40;;;;;;5057302;28;8718;-72
2022/01/10 07:06:27;;;;;;;;;28.25;27.75;29.10;88.30;;;;;;5058019;28;8824;-71
2022/01/10 07:08:54;;;;;;;;;29.75;29.50;29.10;88.30;;;;;;5058266;28;9125;-71
2022/01/10 07:11:21;;;;;;;;;30.25;27.75;29.20;88.40;;;;;;5056354;28;8785;-70
2022/01/10 07:13:47;;;;;;;;;26.50;24.25;29.50;84.60;;;;;;5057614;28;8749;-70
2022/01/10 07:16:14;;;;;;;;;29.00;26.25;29.70;82.10;;;;;;5058267;28;8797;-70
2022/01/10 07:18:41;;;;;;;;;31.00;26.75;29.90;82.10;;;;;;5057715;28;8785;-70
2022/01/10 07:21:08;;;;;;;;;25.00;22.75;29.90;83.50;;;;;;5056939;28;8792;-69
2022/01/10 07:23:34;;;;;;;;;19.75;19.75;30.00;81.40;;;;;;5072391;28;8754;-70
2022/01/10 07:26:01;;;;;;;;;23.50;23.00;29.90;81.30;;;;;;5058081;28;8788;-71
2022/01/10 07:28:28;;;;;;;;;24.50;21.50;30.00;82.00;;;;;;5057753;28;8797;-71
2022/01/10 07:30:55;;;;;;;;;24.00;23.75;30.00;82.50;;;;;;5073590;28;8823;-71
2022/01/10 07:33:21;;;;;;;;;27.40;24.60;30.20;82.00;;;;;;5057660;28;8770;-71
2022/01/10 07:35:48;;;;;;;;;29.50;26.75;30.20;80.80;;;;;;5057522;28;8774;-71
2022/01/10 07:38:15;;;;;;;;;27.50;23.50;30.20;80.10;;;;;;5057365;28;8758;-71
2022/01/10 07:40:41;;;;;;;;;25.25;22.25;30.20;80.30;;;;;;5055886;28;9431;-71
2022/01/10 07:43:08;;;;;;;;;24.00;24.00;30.30;79.80;;;;;;5056609;28;8765;-71
2022/01/10 07:45:35;;;;;;;;;23.67;21.67;30.30;78.50;;;;;;5056874;28;9471;-71
2022/01/10 07:48:02;;;;;;;;;23.50;21.50;30.30;78.00;;;;;;5057051;28;8785;-71
2022/01/10 07:50:28;;;;;;;;;21.25;18.50;30.40;78.00;;;;;;5056763;28;8779;-70
2022/01/10 07:52:55;;;;;;;;;23.00;20.50;30.40;76.70;;;;;;5072110;28;9485;-72
2022/01/10 07:55:22;;;;;;;;;21.00;20.50;30.60;76.90;;;;;;5057265;28;8865;-70
2022/01/10 07:57:48;;;;;;;;;21.75;19.50;30.60;76.10;;;;;;5057244;28;8745;-70
2022/01/10 08:00:15;;;;;;;;;19.50;18.00;30.60;75.40;;;;;;5055563;28;8797;-71
2022/01/10 08:02:43;;;;;;;;;20.75;19.50;30.60;75.20;;;;;;5056850;28;8774;-71
2022/01/10 08:05:12;;;;;;;;;21.50;21.50;30.60;75.90;;;;;;5056928;28;8773;-71
2022/01/10 08:07:38;;;;;;;;;21.75;20.75;30.70;76.80;;;;;;5056723;28;8742;-71
2022/01/10 08:10:06;;;;;;;;;22.00;21.25;30.80;76.60;;;;;;5056284;28;8762;-71
2022/01/10 08:12:32;;;;;;;;;21.75;21.00;30.80;74.80;;;;;;5055573;28;8768;-71
2022/01/10 08:14:59;;;;;;;;;21.00;19.75;30.70;75.40;;;;;;5056658;28;8722;-71
2022/01/10 08:17:26;;;;;;;;;20.50;19.00;30.60;75.50;;;;;;5056601;28;8773;-71
2022/01/10 08:19:53;;;;;;;;;21.75;20.25;30.70;75.30;;;;;;5056256;28;8761;-71
2022/01/10 08:22:22;;;;;;;;;22.50;21.00;30.70;76.90;;;;;;5056057;28;8792;-70
2022/01/10 08:24:50;;;;;;;;;23.75;19.75;30.70;75.90;;;;;;5056839;28;8825;-72
2022/01/10 08:27:16;;;;;;;;;21.75;21.25;30.70;74.70;;;;;;5055406;28;8869;-71
2022/01/10 08:29:43;;;;;;;;;21.00;18.50;30.70;75.70;;;;;;5056392;28;8757;-71
2022/01/10 08:32:11;;;;;;;;;25.75;23.00;30.80;73.70;;;;;;5056474;28;9426;-71
2022/01/10 08:34:38;;;;;;;;;21.25;20.50;30.80;74.80;;;;;;5055014;28;8847;-71
2022/01/10 08:37:05;;;;;;;;;23.00;20.75;30.80;73.90;;;;;;5057007;28;9468;-70
2022/01/10 08:39:32;;;;;;;;;22.75;19.50;30.90;72.10;;;;;;5056012;28;8754;-71
2022/01/10 08:41:58;;;;;;;;;21.25;17.25;31.10;72.20;;;;;;5055235;28;8803;-71
2022/01/10 08:44:25;;;;;;;;;22.25;20.75;31.20;73.20;;;;;;5056271;28;8776;-70
2022/01/10 08:46:52;;;;;;;;;18.50;18.50;31.10;73.50;;;;;;5056651;28;8749;-70
2022/01/10 08:49:18;;;;;;;;;17.25;14.00;31.00;73.00;;;;;;5056996;28;8737;-70
2022/01/10 08:51:46;;;;;;;;;22.75;19.75;30.90;73.00;;;;;;5056832;28;9352;-71
2022/01/10 08:54:13;;;;;;;;;20.75;18.00;30.80;73.30;;;;;;5071608;28;8800;-70
2022/01/10 08:56:39;;;;;;;;;20.75;20.75;30.80;75.20;;;;;;5056368;28;8780;-70
2022/01/10 08:59:06;;;;;;;;;22.00;18.00;30.80;74.40;;;;;;5055925;28;8741;-70
2022/01/10 09:01:34;;;;;;;;;22.25;22.00;30.90;72.40;;;;;;5055788;28;8749;-70
2022/01/10 09:04:00;;;;;;;;;24.00;18.00;30.90;72.50;;;;;;5055345;28;8888;-70
2022/01/10 09:06:27;;;;;;;;;19.00;18.75;30.90;75.00;;;;;;5056178;28;8882;-70
2022/01/10 09:08:54;;;;;;;;;22.50;20.75;31.00;74.20;;;;;;5056677;28;8773;-70
2022/01/10 09:11:22;;;;;;;;;20.00;19.75;30.70;72.90;;;;;;5055899;28;8785;-70
2022/01/10 09:13:49;;;;;;;;;20.50;17.50;30.70;73.10;;;;;;5055434;28;8738;-70
2022/01/10 09:16:16;;;;;;;;;22.00;22.00;30.80;73.20;;;;;;5056961;28;8789;-69
2022/01/10 09:18:43;;;;;;;;;21.50;18.75;30.60;75.80;;;;;;5056569;28;8766;-71
2022/01/10 09:21:10;;;;;;;;;22.00;20.25;30.60;75.40;;;;;;5055153;28;8769;-70
2022/01/10 09:23:36;;;;;;;;;26.25;22.75;30.60;75.00;;;;;;5056270;28;8868;-70
2022/01/10 09:26:03;;;;;;;;;23.50;22.25;30.70;73.10;;;;;;5056177;28;9480;-70
2022/01/10 09:28:30;;;;;;;;;22.00;19.25;30.70;72.40;;;;;;5055769;28;8946;-70
2022/01/10 09:30:57;;;;;;;;;18.50;16.50;30.80;71.30;;;;;;5056722;28;8746;-70
2022/01/10 09:33:23;;;;;;;;;23.25;19.50;31.00;71.50;;;;;;5054595;28;8792;-69
2022/01/10 09:35:50;;;;;;;;;24.25;21.25;31.10;70.30;;;;;;5055803;28;8777;-69
2022/01/10 09:38:17;;;;;;;;;18.40;17.40;31.00;71.00;;;;;;5055748;28;8750;-70
2022/01/10 09:40:44;;;;;;;;;22.40;19.20;31.00;71.10;;;;;;5038143;28;8735;-70
2022/01/10 09:43:10;;;;;;;;;22.60;20.40;31.00;71.10;;;;;;5056462;28;8826;-70
2022/01/10 09:45:38;;;;;;;;;16.40;15.60;31.00;70.30;;;;;;5057807;28;8819;-70
2022/01/10 09:48:05;;;;;;;;;21.00;17.50;31.00;70.70;;;;;;5058203;28;8750;-70
2022/01/10 09:50:32;;;;;;;;;22.00;18.00;31.00;71.70;;;;;;5041711;28;8766;-69
2022/01/10 09:52:59;;;;;;;;;21.25;19.00;30.90;73.60;;;;;;5059198;28;8781;-70
2022/01/10 09:55:30;;;;;;;;;22.25;20.00;30.80;73.50;;;;;;5058913;28;9391;-68
2022/01/10 09:57:58;;;;;;;;;22.50;20.25;30.60;73.40;;;;;;5059700;28;8848;-70
2022/01/10 10:00:25;;;;;;;;;23.00;19.00;30.50;75.00;;;;;;5059055;28;8749;-69
2022/01/10 10:02:51;;;;;;;;;25.75;22.25;30.40;75.70;;;;;;5059133;28;8955;-69
2022/01/10 10:05:19;;;;;;;;;19.75;18.25;30.30;76.00;;;;;;5058934;28;8761;-69
2022/01/10 10:07:45;;;;;;;;;22.50;20.25;30.30;75.60;;;;;;5041415;28;8855;-70
2022/01/10 10:10:13;;;;;;;;;22.25;19.75;30.30;76.30;;;;;;5059236;28;8741;-70
2022/01/10 10:12:44;;;;;;;;;22.80;19.20;30.20;76.40;;;;;;5041185;28;8757;-69
2022/01/10 10:15:12;;;;;;;;;25.00;20.60;30.10;76.80;;;;;;5058794;28;8757;-70
2022/01/10 10:17:40;;;;;;;;;20.20;19.40;30.00;77.40;;;;;;5059050;28;8801;-69
2022/01/10 10:20:10;;;;;;;;;18.40;18.20;29.90;75.90;;;;;;5058396;28;8758;-70
2022/01/10 10:22:39;;;;;;;;;24.00;22.50;29.90;75.40;;;;;;5058566;28;8765;-70
2022/01/10 10:25:07;;;;;;;;;23.00;19.50;29.90;76.00;;;;;;5074673;28;8734;-70
2022/01/10 10:27:38;;;;;;;;;22.00;18.20;29.80;76.20;;;;;;5058250;28;8753;-69
2022/01/10 10:30:19;;;;;;;;;24.50;22.50;29.70;76.60;;;;;;5058619;28;8745;-70
2022/01/10 10:32:46;;;;;;;;;25.50;21.00;29.60;76.40;;;;;;5058332;28;8766;-70
2022/01/10 10:35:13;;;;;;;;;19.75;19.00;29.60;76.20;;;;;;5058568;28;8765;-69
2022/01/10 10:37:41;;;;;;;;;27.25;25.25;29.50;77.40;;;;;;5058420;28;9382;-70
2022/01/10 10:40:10;;;;;;;;;30.75;26.00;29.50;77.70;;;;;;5058904;28;8733;-70
2022/01/10 10:42:39;;;;;;;;;25.50;24.75;29.30;78.80;;;;;;5058230;28;8762;-70
2022/01/10 10:45:07;;;;;;;;;22.00;20.00;29.30;79.50;;;;;;5057230;28;8733;-70
2022/01/10 10:47:36;;;;;;;;;21.25;20.50;29.30;80.90;;;;;;5057948;28;8872;-70
2022/01/10 10:50:05;;;;;;;;;22.25;21.00;29.10;79.00;;;;;;5058050;28;8786;-70
2022/01/10 10:52:37;;;;;;;;;23.25;20.75;29.00;79.40;;;;;;5057791;28;8714;-70
2022/01/10 10:55:08;;;;;;;;;28.25;24.75;28.90;80.50;;;;;;5074198;28;8738;-70
2022/01/10 10:57:35;;;;;;;;;29.75;24.00;28.80;81.40;;;;;;5057104;28;8761;-70
2022/01/10 11:00:07;;;;;;;;;27.25;23.00;28.70;81.70;;;;;;5057768;28;8737;-70
2022/01/10 11:02:34;;;;;;;;;27.50;23.25;28.60;82.00;;;;;;5057590;28;8770;-69
2022/01/10 11:05:05;;;;;;;;;26.75;24.25;28.50;81.40;;;;;;5057733;28;8753;-70
2022/01/10 11:07:34;;;;;;;;;26.00;24.75;28.40;83.60;;;;;;5057728;28;8876;-69
2022/01/10 11:10:03;;;;;;;;;23.50;22.25;28.30;85.70;;;;;;5058438;28;8722;-70
2022/01/10 11:12:30;;;;;;;;;34.50;26.25;28.20;86.40;;;;;;5057716;28;8808;-70
2022/01/10 11:14:59;;;;;;;;;29.75;26.25;28.10;86.40;;;;;;5056597;28;8833;-70
2022/01/10 11:17:26;;;;;;;;;32.50;28.50;27.90;89.40;;;;;;5057673;28;9401;-69
2022/01/10 11:20:12;;;;;;;;;29.00;27.25;27.80;89.60;;;;;;5056208;28;9867;-70
2022/01/10 11:22:40;;;;;;;;;29.25;27.75;27.70;90.20;;;;;;5057370;28;8745;-69
2022/01/10 11:25:22;;;;;;;;;34.75;31.00;27.50;90.40;;;;;;5058222;28;8719;-70
2022/01/10 11:27:50;;;;;;;;;41.25;32.25;27.30;91.30;;;;;;5056411;28;8730;-69
2022/01/10 11:30:22;;;;;;;;;38.25;33.25;27.20;90.90;;;;;;5057134;28;8768;-67
2022/01/10 11:32:51;;;;;;;;;42.00;34.00;27.10;91.20;;;;;;5057769;28;8742;-70
2022/01/10 11:35:19;;;;;;;;;49.00;39.25;27.00;91.70;;;;;;5056970;28;8754;-68
2022/01/10 11:37:46;;;;;;;;;46.25;39.75;26.90;92.20;;;;;;5057154;28;8762;-69
2022/01/10 11:40:14;;;;;;;;;51.75;40.75;26.90;92.60;;;;;;5057743;28;8743;-69
2022/01/10 11:42:58;;;;;;;;;45.50;37.50;26.90;92.80;;;;;;5055922;28;8745;-69
2022/01/10 11:45:25;;;;;;;;;49.50;40.25;26.70;93.00;;;;;;5057138;28;9106;-69
2022/01/10 11:48:15;;;;;;;;;49.75;41.75;26.70;92.80;;;;;;5057327;28;8772;-72
2022/01/10 11:50:43;;;;;;;;;41.50;35.50;26.70;92.90;;;;;;5023630;28;8748;-72
2022/01/10 11:53:10;;;;;;;;;46.25;36.25;26.70;93.10;;;;;;5035760;28;8779;-69
2022/01/10 11:55:55;;;;;;;;;46.25;38.50;26.70;93.00;;;;;;5035572;28;8845;-70
2022/01/10 11:58:23;;;;;;;;;50.50;36.25;26.60;93.70;;;;;;5035824;28;8760;-70
2022/01/10 12:00:52;;;;;;;;;53.50;40.50;26.50;94.60;;;;;;5052183;28;8785;-69
2022/01/10 12:03:21;;;;;;;;;43.00;34.75;26.40;94.90;;;;;;5039360;28;8745;-69
2022/01/10 12:05:48;;;;;;;;;47.50;39.50;26.20;95.30;;;;;;5056779;28;9142;-70
2022/01/10 12:08:15;;;;;;;;;55.25;45.25;26.10;95.40;;;;;;5056081;28;8769;-70
2022/01/10 12:10:42;;;;;;;;;59.00;43.50;26.00;95.00;;;;;;5055559;28;8784;-69
2022/01/10 12:13:12;;;;;;;;;68.50;50.50;26.00;95.30;;;;;;5056039;28;8758;-70
2022/01/10 12:15:39;;;;;;;;;67.60;52.20;25.90;95.20;;;;;;5056641;28;10017;-70
2022/01/10 12:18:06;;;;;;;;;62.80;49.80;25.90;95.50;;;;;;5056551;28;8789;-70
2022/01/10 12:20:33;;;;;;;;;69.80;48.80;25.80;95.80;;;;;;5054940;28;8896;-70
2022/01/10 12:23:00;;;;;;;;;65.50;48.75;25.80;95.20;;;;;;5056611;28;8758;-70
2022/01/10 12:25:28;;;;;;;;;64.00;49.25;25.80;95.20;;;;;;5056313;28;8742;-70
2022/01/10 12:27:57;;;;;;;;;64.75;48.75;25.70;96.40;;;;;;5056948;28;8848;-70
2022/01/10 12:30:25;;;;;;;;;56.25;44.75;25.70;96.70;;;;;;5056754;28;8761;-70
2022/01/10 12:32:53;;;;;;;;;60.75;46.00;25.70;96.30;;;;;;5056501;28;8857;-70
2022/01/10 12:35:20;;;;;;;;;49.50;40.50;25.70;96.50;;;;;;5055996;28;8766;-69
2022/01/10 12:37:46;;;;;;;;;54.00;42.25;25.70;95.10;;;;;;5056717;28;8877;-70
2022/01/10 12:40:14;;;;;;;;;55.50;44.75;25.60;95.20;;;;;;5056623;28;8807;-70
2022/01/10 12:42:45;;;;;;;;;63.75;46.75;25.50;96.50;;;;;;5071738;28;8753;-70
2022/01/10 12:45:12;;;;;;;;;52.00;40.00;25.40;96.70;;;;;;5055095;28;8776;-70
2022/01/10 12:47:44;;;;;;;;;47.00;37.00;25.40;95.10;;;;;;5055928;28;8769;-70